Time;durP1;ratioP1;P1;durP2;ratioP2;P2;SDS_P1;SDS_P2;PMS_P1;PMS_P2;Temp;Humidity;BMP_temperature;BMP_pressure;BME280_temperature;BME280_humidity;BME280_pressure;Samples;Min_cycle;Max_cycle;Signal;HPM_P1;HPM_P2
2021/07/20 00:03:09;;;;;;;;;;;;;;;;;;;;;
2021/07/20 00:09:56;;;;;;;;;;;;;;;;;;;;;
2021/07/20 00:12:47;;;;;;;0.57;0.57;;;;;;;19.64;55.99;92595.13;6161541;23;20017;-95
2021/07/20 00:16:05;;;;;;;0.60;0.40;;;;;;;19.85;54.30;92628.69;6163949;23;20095;-94
2021/07/20 00:21:55;;;;;;;;;;;;;;;;;;;;;
2021/07/20 00:25:06;;;;;;;0.95;0.63;;;;;;;19.81;48.05;92561.41;6144845;23;20152;-94
2021/07/20 00:27:49;;;;;;;1.08;0.93;;;;;;;19.96;48.02;92589.88;6135423;23;20032;-94
2021/07/20 00:30:40;;;;;;;;;;;;;;;;;;;;;
2021/07/20 00:34:06;;;;;;;;;;;;;;;;;;;;;
2021/07/20 00:37:21;;;;;;;;;;;;;;;;;;;;;
2021/07/20 00:40:14;;;;;;;;;;;;;;;;;;;;;
2021/07/20 00:49:57;;;;;;;;;;;;;;;;;;;;;
2021/07/20 00:52:32;;;;;;;0.30;0.30;;;;;;;19.80;48.70;92559.88;6186577;23;19913;-94
2021/07/20 00:58:43;;;;;;;1.13;0.75;;;;;;;19.94;50.38;92598.19;6167459;23;20025;-93
2021/07/20 01:01:14;;;;;;;1.35;1.05;;;;;;;19.53;51.11;92551.59;6133526;23;20017;-94
2021/07/20 01:04:07;;;;;;;0.35;0.30;;;;;;;19.74;51.26;92607.16;6184827;23;20020;-94
2021/07/20 01:07:13;;;;;;;0.45;0.43;;;;;;;19.41;51.63;92567.53;6142653;23;20528;-94
2021/07/20 01:13:41;;;;;;;;;;;;;;;;;;;;;
2021/07/20 01:17:04;;;;;;;0.30;0.30;;;;;;;19.39;52.58;92583.06;6186939;23;20032;-94
2021/07/20 01:20:15;;;;;;;;;;;;;;;;;;;;;
2021/07/20 01:24:15;;;;;;;;;;;;;;;;;;;;;
2021/07/20 01:26:39;;;;;;;2.30;0.52;;;;;;;19.03;53.50;92560.84;6166496;23;20023;-93
2021/07/20 01:29:21;;;;;;;0.73;0.52;;;;;;;18.93;53.76;92556.78;6158655;23;20080;-95
2021/07/20 01:32:46;;;;;;;;;;;;;;;;;;;;;
2021/07/20 01:35:36;;;;;;;;;;;;;;;;;;;;;
2021/07/20 01:38:21;;;;;;;0.30;0.30;;;;;;;18.82;55.79;92548.50;6183807;23;20064;-93
2021/07/20 01:41:17;;;;;;;0.32;0.32;;;;;;;18.88;56.03;92559.66;6134578;23;20056;-93
2021/07/20 01:44:04;;;;;;;0.55;0.55;;;;;;;18.68;56.26;92538.25;6158594;23;20017;-94
2021/07/20 01:46:54;;;;;;;0.93;0.82;;;;;;;18.66;56.77;92535.16;6135149;23;20101;-95
2021/07/20 01:49:44;;;;;;;;;;;;;;;;;;;;;
2021/07/20 01:52:45;;;;;;;0.45;0.45;;;;;;;18.60;57.42;92527.75;6136692;23;20024;-93
2021/07/20 01:55:46;;;;;;;0.45;0.30;;;;;;;18.58;57.23;92540.59;6178310;23;20043;-94
2021/07/20 01:59:06;;;;;;;0.40;0.40;;;;;;;18.76;57.30;92563.09;6160754;23;20013;-94
2021/07/20 02:03:10;;;;;;;;;;;;;;;;;;;;;
2021/07/20 02:09:15;;;;;;;1.20;0.80;;;;;;;18.51;56.51;92536.63;6127470;23;20077;-94
2021/07/20 02:12:10;;;;;;;;;;;;;;;;;;;;;
2021/07/20 02:15:50;;;;;;;0.40;0.40;;;;;;;18.50;55.29;92534.31;6132851;23;20536;-94
2021/07/20 02:18:56;;;;;;;0.95;0.82;;;;;;;18.49;55.46;92544.13;6153240;23;20029;-94
2021/07/20 02:21:52;;;;;;;0.75;0.70;;;;;;;18.48;56.02;92545.22;6151519;23;20437;-94
2021/07/20 02:24:39;;;;;;;1.10;0.95;;;;;;;18.43;55.95;92540.16;6132240;23;20540;-94
2021/07/20 02:31:33;;;;;;;;;;;;;;;;;;;;;
2021/07/20 02:34:19;;;;;;;0.30;0.30;;;;;;;18.54;54.15;92553.75;6156053;23;20524;-93
2021/07/20 02:37:00;;;;;;;0.60;0.40;;;;;;;18.70;54.90;92578.44;6154786;23;20446;-94
2021/07/20 02:39:53;;;;;;;0.60;0.60;;;;;;;18.61;55.22;92566.44;6126840;23;20738;-95
2021/07/20 02:46:20;;;;;;;0.85;0.52;;;;;;;18.76;56.02;92594.91;6135301;23;20025;-93
2021/07/20 02:49:13;;;;;;;;;;;;;;;;;;;;;
2021/07/20 02:52:25;;;;;;;;;;;;;;;;;;;;;
2021/07/20 02:55:29;;;;;;;1.15;1.00;;;;;;;18.66;55.65;92576.81;6154419;23;20049;-94
2021/07/20 02:58:44;;;;;;;;;;;;;;;;;;;;;
2021/07/20 03:02:30;;;;;;;0.95;0.80;;;;;;;18.50;56.62;92566.09;6113538;23;20017;-94
2021/07/20 03:05:56;;;;;;;1.15;0.65;;;;;;;18.53;57.08;92573.41;6168957;23;20031;-94
2021/07/20 03:08:59;;;;;;;0.95;0.65;;;;;;;18.19;57.03;92529.56;6135087;23;20021;-93
2021/07/20 03:12:17;;;;;;;;;;;;;;;;;;;;;
2021/07/20 03:15:03;;;;;;;1.05;0.88;;;;;;;18.05;57.55;92530.69;6184308;23;20084;-94
2021/07/20 03:18:29;;;;;;;0.35;0.35;;;;;;;17.97;57.17;92528.13;6138097;23;20013;-94
2021/07/20 03:21:06;;;;;;;0.73;0.73;;;;;;;17.92;57.66;92541.59;6161769;23;20025;-94
2021/07/20 03:24:52;;;;;;;0.63;0.50;;;;;;;17.85;57.45;92531.56;6183980;23;20084;-93
2021/07/20 03:27:32;;;;;;;;;;;;;;;;;;;;;
2021/07/20 03:30:31;;;;;;;0.60;0.50;;;;;;;17.85;57.58;92540.25;6158696;23;20020;-93
2021/07/20 03:33:21;;;;;;;;;;;;;;;;;;;;;
2021/07/20 03:36:29;;;;;;;0.30;0.30;;;;;;;18.04;56.98;92563.59;6165125;23;20029;-95
2021/07/20 03:39:11;;;;;;;0.40;0.40;;;;;;;17.91;55.12;92534.78;6184031;23;20096;-93
2021/07/20 03:42:19;;;;;;;1.88;1.02;;;;;;;17.91;55.27;92532.88;6184162;23;20099;-94
2021/07/20 03:48:19;;;;;;;0.50;0.50;;;;;;;18.22;56.30;92587.22;6152539;23;20116;-95
2021/07/20 03:51:23;;;;;;;0.93;0.50;;;;;;;18.04;57.00;92560.94;6136129;23;20480;-95
2021/07/20 03:54:30;;;;;;;;;;;;;;;;;;;;;
2021/07/20 03:57:39;;;;;;;0.20;0.20;;;;;;;17.88;57.35;92554.75;6182133;23;20327;-94
2021/07/20 04:00:44;;;;;;;;;;;;;;;;;;;;;
2021/07/20 04:03:53;;;;;;;0.65;0.47;;;;;;;17.82;57.74;92564.00;6184896;23;20077;-94
2021/07/20 04:07:01;;;;;;;;;;;;;;;;;;;;;
2021/07/20 04:09:48;;;;;;;0.40;0.40;;;;;;;17.97;57.68;92595.13;6183950;23;20017;-93
2021/07/20 04:13:02;;;;;;;;;;;;;;;;;;;;;
2021/07/20 04:16:15;;;;;;;0.30;0.25;;;;;;;17.67;58.76;92555.56;6093973;23;20066;-93
2021/07/20 04:19:13;;;;;;;0.22;0.22;;;;;;;17.92;58.56;92591.91;6115589;23;20041;-94
2021/07/20 04:22:28;;;;;;;0.20;0.20;;;;;;;17.64;58.72;92553.56;6109567;23;20084;-94
2021/07/20 04:25:18;;;;;;;1.13;0.45;;;;;;;17.99;59.65;92608.81;6115758;23;20098;-92
2021/07/20 04:28:14;;;;;;;0.75;0.65;;;;;;;17.70;59.87;92567.38;6068587;23;20026;-95
2021/07/20 04:31:23;;;;;;;0.55;0.50;;;;;;;17.78;60.44;92584.25;6160783;23;20079;-94
2021/07/20 04:37:29;;;;;;;;;;;;;;;;;;;;;
2021/07/20 04:40:26;;;;;;;0.80;0.80;;;;;;;17.72;61.32;92564.38;6184595;23;20092;-94
2021/07/20 04:43:25;;;;;;;;;;;;;;;;;;;;;
2021/07/20 04:50:11;;;;;;;;;;;;;;;;;;;;;
2021/07/20 05:00:49;;;;;;;1.50;1.13;;;;;;;18.13;63.69;92573.31;6175139;23;20021;-94
2021/07/20 05:03:50;;;;;;;0.77;0.70;;;;;;;18.25;63.66;92584.66;6158917;23;20021;-94
2021/07/20 05:10:52;;;;;;;0.65;0.65;;;;;;;18.41;63.32;92579.47;6183695;23;20060;-93
2021/07/20 05:14:08;;;;;;;;;;;;;;;;;;;;;
2021/07/20 05:17:20;;;;;;;;;;;;;;;;;;;;;
2021/07/20 05:20:21;;;;;;;0.35;0.35;;;;;;;18.75;63.32;92574.78;6186556;23;20068;-93
2021/07/20 05:27:51;;;;;;;;;;;;;;;;;;;;;
2021/07/20 05:34:32;;;;;;;0.40;0.40;;;;;;;19.50;61.46;92587.53;6127228;23;20103;-94
2021/07/20 05:41:47;;;;;;;;;;;;;;;;;;;;;
2021/07/20 05:49:06;;;;;;;0.55;0.47;;;;;;;20.18;59.55;92578.66;6172784;23;20096;-93
2021/07/20 06:00:13;;;;;;;0.45;0.40;;;;;;;21.20;56.83;92595.72;6095548;23;20128;-94
2021/07/20 06:07:05;;;;;;;;;;;;;;;;;;;;;
2021/07/20 06:10:49;;;;;;;;;;;;;;;;;;;;;
2021/07/20 06:14:28;;;;;;;1.35;1.20;;;;;;;27.58;39.82;92595.91;6160293;23;20028;-94
2021/07/20 06:17:50;;;;;;;1.20;1.10;;;;;;;29.99;35.14;92597.41;6186164;23;20088;-94
2021/07/20 06:21:20;;;;;;;1.85;1.20;;;;;;;31.30;32.99;92603.91;6135632;23;20024;-95
2021/07/20 06:24:31;;;;;;;1.98;1.42;;;;;;;32.26;33.00;92626.81;6178271;23;20048;-95
2021/07/20 06:49:57;;;;;;;1.42;0.90;;;;;;;31.55;32.16;92600.00;6099625;23;20025;-92
2021/07/20 07:00:52;;;;;;;0.35;0.35;;;;;;;25.77;44.87;92625.75;6038724;23;20126;-93
2021/07/20 07:03:52;;;;;;;0.38;0.38;;;;;;;24.59;48.27;92627.75;6018130;23;20466;-94
2021/07/20 07:06:43;;;;;;;1.08;0.52;;;;;;;23.81;50.98;92652.56;4836389;27;8279663;-78
2021/07/20 07:09:10;;;;;;;0.52;0.52;;;;;;;24.17;50.57;92658.28;5110341;28;20059;-78
2021/07/20 07:11:37;;;;;;;1.77;1.10;;;;;;;23.72;51.13;92653.94;5109338;28;20035;-78
2021/07/20 07:14:03;;;;;;;2.75;1.10;;;;;;;24.26;51.44;92661.44;5110253;28;20036;-78
2021/07/20 07:16:30;;;;;;;1.13;0.88;;;;;;;24.28;50.70;92653.03;5104003;28;20033;-78
2021/07/20 07:18:56;;;;;;;0.50;0.50;;;;;;;24.51;50.58;92656.34;5085505;28;20075;-77
2021/07/20 07:21:23;;;;;;;0.55;0.45;;;;;;;24.17;50.73;92658.28;5090896;28;20036;-78
2021/07/20 07:23:52;;;;;;;0.73;0.57;;;;;;;24.46;49.97;92662.00;5092212;28;20508;-78
2021/07/20 07:26:19;;;;;;;1.88;0.60;;;;;;;24.37;51.26;92661.53;5093275;28;20041;-77
2021/07/20 07:28:46;;;;;;;1.45;0.95;;;;;;;24.21;51.15;92659.09;5097309;28;20040;-78
2021/07/20 07:31:13;;;;;;;0.57;0.57;;;;;;;24.23;51.82;92661.41;5097018;28;20440;-78
2021/07/20 07:33:39;;;;;;;0.93;0.70;;;;;;;24.20;51.60;92670.16;5089436;28;20400;-78
2021/07/20 07:36:06;;;;;;;2.42;1.13;;;;;;;24.41;50.86;92665.03;5087857;28;20403;-78
2021/07/20 07:38:34;;;;;;;1.15;1.05;;;;;;;24.61;50.94;92670.16;5086084;28;20036;-77
2021/07/20 07:41:01;;;;;;;0.50;0.50;;;;;;;24.45;52.40;92668.50;5101029;28;20036;-77
2021/07/20 07:43:29;;;;;;;1.40;0.88;;;;;;;24.39;52.15;92666.53;5108537;28;20046;-77
2021/07/20 07:45:57;;;;;;;0.50;0.50;;;;;;;24.18;52.02;92659.06;5104130;28;20027;-79
2021/07/20 07:48:27;;;;;;;0.65;0.50;;;;;;;24.30;51.73;92662.25;5088306;28;20486;-77
2021/07/20 07:50:57;;;;;;;0.93;0.73;;;;;;;24.55;51.05;92661.72;5089472;28;20077;-75
2021/07/20 07:53:24;;;;;;;2.35;0.85;;;;;;;24.26;52.38;92661.44;5088936;28;20032;-77
2021/07/20 07:55:51;;;;;;;0.52;0.35;;;;;;;24.51;51.43;92652.91;5087390;28;20097;-77
2021/07/20 07:58:17;;;;;;;0.43;0.40;;;;;;;24.62;50.26;92667.13;5089969;28;20266;-78
2021/07/20 08:00:46;;;;;;;0.70;0.60;;;;;;;24.10;52.17;92655.53;5092748;28;20063;-78
2021/07/20 08:03:16;;;;;;;1.65;0.73;;;;;;;24.18;51.43;92654.47;5092359;28;20409;-78
2021/07/20 08:05:44;;;;;;;0.68;0.52;;;;;;;24.14;53.79;92659.03;5115876;27;20043;-78
2021/07/20 08:08:11;;;;;;;2.80;0.93;;;;;;;24.34;54.28;92661.50;5112646;28;20489;-77
2021/07/20 08:10:37;;;;;;;0.45;0.45;;;;;;;24.34;53.54;92658.81;5112809;28;20040;-76
2021/07/20 08:13:05;;;;;;;0.40;0.40;;;;;;;24.25;52.93;92656.44;5095789;28;20540;-79
2021/07/20 08:15:32;;;;;;;1.10;0.98;;;;;;;24.78;45.36;92653.50;5113809;28;20032;-78
2021/07/20 08:17:59;;;;;;;1.27;0.50;;;;;;;24.92;50.72;92652.84;5099882;28;20034;-78
2021/07/20 08:20:25;;;;;;;0.77;0.77;;;;;;;25.00;46.36;92659.03;5104773;28;20024;-78
2021/07/20 08:22:51;;;;;;;1.10;0.80;;;;;;;24.71;48.86;92650.78;5103392;28;20552;-79
2021/07/20 08:25:31;;;;;;;0.65;0.57;;;;;;;24.82;50.02;92658.88;5103303;28;20055;-78
2021/07/20 08:28:07;;;;;;;1.50;1.20;;;;;;;24.87;48.79;92658.53;5101173;28;20047;-78
2021/07/20 08:30:36;;;;;;;1.35;0.57;;;;;;;24.98;43.44;92662.06;5101434;28;20119;-77
2021/07/20 08:33:03;;;;;;;0.20;0.20;;;;;;;24.97;45.74;92660.53;5084438;28;20062;-78
2021/07/20 08:35:32;;;;;;;0.80;0.55;;;;;;;24.98;45.68;92656.72;5103667;28;20020;-79
2021/07/20 08:38:12;;;;;;;0.77;0.70;;;;;;;25.38;43.98;92657.75;5083358;28;20031;-77
2021/07/20 08:40:50;;;;;;;1.42;0.85;;;;;;;25.50;37.64;92662.03;5106788;28;20035;-79
2021/07/20 08:43:56;;;;;;;0.65;0.60;;;;;;;24.83;42.04;92663.09;5088665;28;20038;-78
2021/07/20 08:46:37;;;;;;;1.33;1.00;;;;;;;24.79;45.72;92656.94;5091798;28;20036;-78
2021/07/20 08:49:08;;;;;;;1.38;0.60;;;;;;;25.24;43.58;92661.13;5097007;28;20039;-77
2021/07/20 08:52:14;;;;;;;0.50;0.50;;;;;;;25.00;44.26;92669.72;5064305;28;20036;-78
2021/07/20 08:54:58;;;;;;;0.63;0.50;;;;;;;25.01;47.14;92665.91;5105526;28;20046;-78
2021/07/20 08:57:45;;;;;;;1.30;1.10;;;;;;;24.82;47.00;92662.34;5096368;28;20100;-77
2021/07/20 09:00:21;;;;;;;1.48;0.93;;;;;;;25.13;46.64;92669.06;5077595;28;20058;-77
2021/07/20 09:02:49;;;;;;;0.47;0.47;;;;;;;24.71;47.16;92675.63;5093412;28;20032;-77
2021/07/20 09:05:27;;;;;;;1.20;1.02;;;;;;;24.55;46.86;92675.09;5092754;28;20038;-78
2021/07/20 09:08:00;;;;;;;0.30;0.30;;;;;;;25.07;47.25;92675.13;5103409;28;20048;-79
2021/07/20 09:10:35;;;;;;;0.47;0.45;;;;;;;25.35;42.13;92669.19;5088602;28;20076;-78
2021/07/20 09:13:03;;;;;;;1.65;1.27;;;;;;;25.32;44.20;92672.63;5101623;28;20032;-80
2021/07/20 09:15:32;;;;;;;1.15;0.80;;;;;;;24.75;47.05;92675.66;5102525;28;20078;-76
2021/07/20 09:18:23;;;;;;;3.28;0.95;;;;;;;25.18;45.08;92667.19;5109220;28;20028;-79
2021/07/20 09:20:55;;;;;;;1.30;1.13;;;;;;;25.34;45.17;92673.78;5117075;28;20380;-80
2021/07/20 09:23:26;;;;;;;1.17;0.73;;;;;;;25.27;45.65;92673.00;5100387;28;20506;-79
2021/07/20 09:25:56;;;;;;;0.43;0.43;;;;;;;25.32;44.58;92672.63;5118544;28;20511;-77
2021/07/20 09:28:38;;;;;;;1.52;1.05;;;;;;;25.60;43.42;92677.41;5119485;28;20397;-79
2021/07/20 09:31:07;;;;;;;;;;;;;;;25.76;44.25;92669.81;5099027;28;20126;-78
2021/07/20 09:34:31;;;;;;;1.35;0.85;;;;;;;25.70;43.33;92668.63;5081858;28;19954;-78
2021/07/20 09:37:06;;;;;;;0.60;0.60;;;;;;;25.88;43.31;92674.09;5038859;28;20043;-78
2021/07/20 09:39:45;;;;;;;3.28;1.23;;;;;;;25.95;41.94;92674.09;5099749;28;20417;-78
2021/07/20 09:42:34;;;;;;;0.20;0.20;;;;;;;25.47;43.26;92684.97;5083025;28;20043;-79
2021/07/20 09:45:14;;;;;;;0.68;0.68;;;;;;;25.65;43.53;92673.59;5089738;28;20042;-78
2021/07/20 09:48:22;;;;;;;0.60;0.57;;;;;;;25.82;42.55;92678.25;5089957;28;20402;-78
2021/07/20 09:50:55;;;;;;;1.85;1.30;;;;;;;25.80;43.07;92671.72;5117566;28;20023;-78
2021/07/20 09:53:33;;;;;;;0.47;0.40;;;;;;;25.94;43.04;92671.81;5097060;28;20036;-80
2021/07/20 09:56:25;;;;;;;0.93;0.77;;;;;;;25.30;45.90;92674.91;5117297;28;20032;-80
2021/07/20 09:59:09;;;;;;;1.25;0.75;;;;;;;25.95;43.24;92674.09;5057629;28;20060;-80
2021/07/20 10:01:57;;;;;;;1.08;0.77;;;;;;;26.34;43.28;92672.69;5064844;28;20076;-80
2021/07/20 10:04:29;;;;;;;3.75;0.85;;;;;;;25.86;43.12;92667.53;5096832;28;20403;-80
2021/07/20 10:07:08;;;;;;;0.93;0.60;;;;;;;26.09;44.05;92667.25;5095876;28;20055;-77
2021/07/20 10:09:40;;;;;;;1.55;1.25;;;;;;;25.80;40.60;92659.06;5064462;28;20043;-79
2021/07/20 10:12:09;;;;;;;0.50;0.50;;;;;;;25.74;41.23;92668.66;5098960;28;20035;-81
2021/07/20 10:14:52;;;;;;;0.28;0.28;;;;;;;26.32;41.56;92659.66;5111230;28;20394;-78
2021/07/20 10:17:36;;;;;;;0.88;0.77;;;;;;;26.37;41.26;92667.34;5093469;28;20032;-78
2021/07/20 10:20:17;;;;;;;0.73;0.47;;;;;;;26.92;39.34;92663.56;5099156;28;20035;-77
2021/07/20 10:22:48;;;;;;;0.47;0.47;;;;;;;26.42;41.35;92670.78;5100300;28;20043;-80
2021/07/20 10:25:40;;;;;;;0.88;0.65;;;;;;;26.66;39.36;92663.94;5100029;28;20054;-80
2021/07/20 10:28:17;;;;;;;0.75;0.52;;;;;;;26.77;40.36;92665.50;5063282;28;20088;-83
2021/07/20 10:30:50;;;;;;;1.65;0.93;;;;;;;26.49;42.55;92663.50;5079231;28;20543;-79
2021/07/20 10:33:23;;;;;;;2.13;1.10;;;;;;;26.92;42.19;92657.41;5098115;28;20069;-79
2021/07/20 10:36:22;;;;;;;0.95;0.80;;;;;;;27.14;43.44;92663.56;5098440;28;20047;-78
2021/07/20 10:38:57;;;;;;;0.77;0.77;;;;;;;26.54;41.44;92659.69;5098101;28;20032;-80
2021/07/20 10:41:43;;;;;;;0.93;0.80;;;;;;;27.16;42.90;92653.94;5102674;28;20435;-80
2021/07/20 10:44:19;;;;;;;0.30;0.30;;;;;;;27.38;42.57;92654.72;5078504;28;20455;-77
2021/07/20 10:46:45;;;;;;;1.02;0.95;;;;;;;27.32;41.85;92652.81;5099849;28;20091;-79
2021/07/20 10:49:28;;;;;;;1.95;1.30;;;;;;;27.46;42.71;92655.44;5097089;28;20093;-79
2021/07/20 10:52:16;;;;;;;1.95;1.25;;;;;;;27.72;40.46;92650.75;5077788;28;20103;-78
2021/07/20 10:54:46;;;;;;;1.48;0.98;;;;;;;27.76;40.33;92654.97;5087969;28;20040;-78
2021/07/20 10:57:20;;;;;;;1.55;0.93;;;;;;;27.95;40.34;92651.06;5093424;28;20054;-79
2021/07/20 10:59:46;;;;;;;0.60;0.60;;;;;;;28.14;39.70;92646.38;5093219;28;20066;-79
2021/07/20 11:02:24;;;;;;;1.05;0.88;;;;;;;28.47;39.85;92649.66;5073169;28;20469;-78
2021/07/20 11:04:55;;;;;;;0.93;0.80;;;;;;;28.30;39.64;92649.34;5098665;28;20062;-81
2021/07/20 11:07:48;;;;;;;1.90;1.17;;;;;;;28.37;38.24;92656.63;5116054;28;20039;-79
2021/07/20 11:10:33;;;;;;;1.63;1.13;;;;;;;28.56;37.46;92655.38;5074581;28;20094;-81
2021/07/20 11:13:07;;;;;;;1.42;1.20;;;;;;;28.27;39.59;92657.47;5096798;28;20036;-80
2021/07/20 11:15:36;;;;;;;1.45;1.00;;;;;;;28.02;38.98;92651.03;5113835;28;20076;-80
2021/07/20 11:18:10;;;;;;;2.92;1.48;;;;;;;27.90;39.78;92656.09;5104156;28;20039;-81
2021/07/20 11:20:37;;;;;;;0.90;0.88;;;;;;;27.88;40.08;92656.50;5093151;28;20028;-81
2021/07/20 11:23:05;;;;;;;0.85;0.80;;;;;;;28.38;38.90;92645.47;5076824;28;20020;-81
2021/07/20 11:25:32;;;;;;;1.60;1.10;;;;;;;28.34;42.80;92650.09;5076917;28;20062;-80
2021/07/20 11:27:59;;;;;;;0.80;0.75;;;;;;;28.17;40.65;92645.59;5092751;28;20036;-80
2021/07/20 11:30:33;;;;;;;1.13;0.82;;;;;;;28.63;38.73;92644.56;5111356;28;20048;-81
2021/07/20 11:33:09;;;;;;;2.67;1.17;;;;;;;28.47;38.81;92644.28;5114275;28;20059;-80
2021/07/20 11:35:39;;;;;;;1.65;1.30;;;;;;;29.00;38.28;92640.41;5104981;28;20035;-81
2021/07/20 11:38:09;;;;;;;2.00;1.15;;;;;;;28.73;39.09;92641.03;5097530;28;20043;-79
2021/07/20 11:41:06;;;;;;;1.02;0.93;;;;;;;28.86;39.94;92641.28;5099060;28;20046;-79
2021/07/20 11:43:50;;;;;;;4.15;0.95;;;;;;;29.20;38.39;92627.16;5113244;28;20028;-82
2021/07/20 11:46:22;;;;;;;1.55;1.17;;;;;;;28.60;39.84;92629.22;5075995;28;20036;-82
2021/07/20 11:48:54;;;;;;;0.95;0.70;;;;;;;28.35;39.57;92632.81;5110309;28;20016;-78
2021/07/20 11:51:29;;;;;;;1.05;0.90;;;;;;;28.14;39.78;92635.59;5092633;28;20071;-78
2021/07/20 11:54:01;;;;;;;0.70;0.60;;;;;;;28.21;40.37;92630.19;5104540;28;20456;-78
2021/07/20 11:56:32;;;;;;;0.70;0.60;;;;;;;27.70;40.15;92629.66;5105576;28;20042;-78
2021/07/20 11:59:20;;;;;;;1.15;0.80;;;;;;;27.48;42.13;92620.88;5091818;28;20040;-79
2021/07/20 12:02:37;;;;;;;0.80;0.60;;;;;;;27.53;40.53;92625.84;5106554;28;20028;-78
2021/07/20 12:06:00;;;;;;;1.15;0.82;;;;;;;27.69;41.12;92630.03;5063348;28;20035;-79
2021/07/20 12:08:26;;;;;;;;;;;;;;;28.08;39.03;92626.41;5022881;28;20567;-77
2021/07/20 12:11:03;;;;;;;1.55;0.90;;;;;;;28.04;40.21;92626.44;5016889;28;19913;-78
2021/07/20 12:13:29;;;;;;;1.33;0.95;;;;;;;27.68;40.97;92628.50;5081486;28;20599;-78
2021/07/20 12:15:55;;;;;;;1.25;1.10;;;;;;;27.36;41.28;92624.00;5119663;28;20035;-79
2021/07/20 12:18:21;;;;;;;1.77;1.20;;;;;;;27.82;42.06;92626.50;5108310;28;20099;-78
2021/07/20 12:20:48;;;;;;;3.30;1.40;;;;;;;28.46;40.22;92621.94;5078590;28;20406;-79
2021/07/20 12:23:15;;;;;;;0.82;0.65;;;;;;;28.57;38.75;92619.22;5101351;28;20090;-81
2021/07/20 12:25:41;;;;;;;1.08;0.98;;;;;;;28.58;38.97;92615.38;5110091;28;20035;-78
2021/07/20 12:28:08;;;;;;;1.15;0.98;;;;;;;27.94;40.74;92617.25;5111288;28;20127;-78
2021/07/20 12:30:33;;;;;;;1.13;1.00;;;;;;;27.36;41.40;92621.31;5113831;28;20032;-79
2021/07/20 12:33:03;;;;;;;1.60;1.17;;;;;;;27.68;41.76;92617.75;5098753;28;20028;-81
2021/07/20 12:35:30;;;;;;;3.00;1.00;;;;;;;27.78;43.00;92608.84;5108177;28;20116;-79
2021/07/20 12:38:08;;;;;;;1.08;0.60;;;;;;;27.51;41.53;92624.72;5101027;28;20044;-79
2021/07/20 12:40:37;;;;;;;1.08;0.98;;;;;;;27.64;41.56;92608.94;5103498;28;20035;-77
2021/07/20 12:43:13;;;;;;;1.30;1.20;;;;;;;27.80;42.15;92606.53;5098207;28;20115;-78
2021/07/20 12:45:41;;;;;;;0.47;0.47;;;;;;;27.73;42.97;92603.91;5100480;28;20528;-80
2021/07/20 12:48:23;;;;;;;1.40;1.05;;;;;;;27.82;40.94;92609.63;5099091;28;20060;-80
2021/07/20 12:50:50;;;;;;;1.58;1.15;;;;;;;27.30;43.14;92607.50;5102187;28;20031;-81
2021/07/20 12:53:18;;;;;;;2.17;1.17;;;;;;;27.22;43.19;92611.34;5080812;28;20038;-81
2021/07/20 12:55:46;;;;;;;1.30;0.82;;;;;;;27.23;42.83;92598.69;5105110;28;20031;-81
2021/07/20 12:58:13;;;;;;;0.63;0.40;;;;;;;27.38;42.61;92619.78;5098376;28;20056;-80
2021/07/20 13:00:39;;;;;;;1.45;1.02;;;;;;;27.62;43.10;92612.00;5081600;28;20047;-81
2021/07/20 13:03:07;;;;;;;1.00;0.93;;;;;;;27.57;41.43;92605.09;5101393;28;20063;-79
2021/07/20 13:05:35;;;;;;;0.95;0.85;;;;;;;27.55;42.51;92614.72;5109719;28;20051;-79
2021/07/20 13:08:01;;;;;;;2.40;1.30;;;;;;;27.81;42.30;92613.47;5101421;28;20051;-79
2021/07/20 13:10:29;;;;;;;1.63;1.25;;;;;;;28.21;43.31;92617.50;5106496;28;20027;-81
2021/07/20 13:12:55;;;;;;;1.33;1.23;;;;;;;28.48;41.59;92613.50;5113112;28;20504;-79
2021/07/20 13:15:23;;;;;;;0.98;0.85;;;;;;;27.74;41.07;92605.41;5116945;28;20070;-78
2021/07/20 13:17:54;;;;;;;1.05;0.80;;;;;;;28.37;41.49;92608.94;5095236;28;20886;-80
2021/07/20 13:20:21;;;;;;;1.35;0.95;;;;;;;28.98;40.33;92610.41;5122503;28;20028;-80
2021/07/20 13:22:48;;;;;;;2.10;0.95;;;;;;;29.45;39.65;92608.03;5122817;28;20035;-80
2021/07/20 13:25:15;;;;;;;1.13;1.00;;;;;;;28.81;39.91;92610.16;5122019;28;20079;-79
2021/07/20 13:27:46;;;;;;;1.10;0.85;;;;;;;28.04;41.20;92610.31;5119552;28;20143;-80
2021/07/20 13:30:23;;;;;;;1.00;0.90;;;;;;;28.37;42.03;92603.56;5111669;28;20035;-85
2021/07/20 13:32:50;;;;;;;1.50;0.90;;;;;;;28.81;41.11;92609.41;5101403;28;20277;-79
2021/07/20 13:35:18;;;;;;;0.70;0.70;;;;;;;28.94;39.47;92615.06;5099320;28;20052;-81
2021/07/20 13:37:45;;;;;;;1.48;0.93;;;;;;;28.11;41.29;92604.88;5116814;28;20122;-80
2021/07/20 13:40:13;;;;;;;1.98;1.48;;;;;;;28.43;41.56;92610.03;5122770;28;20059;-80
2021/07/20 13:42:39;;;;;;;1.67;1.00;;;;;;;29.10;39.43;92601.09;5102807;28;20036;-80
2021/07/20 13:45:08;;;;;;;0.95;0.85;;;;;;;29.47;39.88;92597.63;5104687;28;20028;-81
2021/07/20 13:47:40;;;;;;;1.35;0.93;;;;;;;29.17;39.66;92606.41;5114221;28;20040;-81
2021/07/20 13:50:08;;;;;;;1.52;1.25;;;;;;;29.09;40.17;92594.94;5115952;28;20028;-80
2021/07/20 13:52:36;;;;;;;0.77;0.75;;;;;;;29.03;40.38;92601.91;5116980;28;20065;-79
2021/07/20 13:55:05;;;;;;;1.38;1.23;;;;;;;29.27;38.35;92619.00;5114707;28;20102;-81
2021/07/20 13:57:32;;;;;;;1.27;1.02;;;;;;;29.23;39.39;92602.88;5116442;28;20027;-80
2021/07/20 14:00:00;;;;;;;1.48;0.93;;;;;;;29.81;38.36;92607.66;5086335;28;20067;-79
2021/07/20 14:02:27;;;;;;;1.65;1.30;;;;;;;29.57;38.29;92602.13;5096579;28;20039;-77
2021/07/20 14:04:55;;;;;;;1.55;1.02;;;;;;;29.44;37.88;92596.50;5103050;28;20082;-80
2021/07/20 14:07:22;;;;;;;0.98;0.85;;;;;;;29.86;37.21;92596.44;5116733;28;20527;-81
2021/07/20 14:09:52;;;;;;;1.65;1.20;;;;;;;29.40;39.12;92595.75;5096029;28;20074;-80
2021/07/20 14:12:20;;;;;;;1.08;0.88;;;;;;;30.10;37.52;92605.34;5098217;28;20039;-80
2021/07/20 14:14:52;;;;;;;1.73;1.45;;;;;;;29.78;37.35;92605.78;5113366;28;20832;-80
2021/07/20 14:17:23;;;;;;;1.63;1.33;;;;;;;30.30;37.22;92600.09;5114206;28;20118;-80
2021/07/20 14:19:51;;;;;;;1.75;0.90;;;;;;;29.61;38.64;92592.06;5078327;28;20040;-81
2021/07/20 14:22:22;;;;;;;0.73;0.60;;;;;;;29.70;39.37;92588.91;5096471;28;20032;-81
2021/07/20 14:24:52;;;;;;;;;;;;;;;29.23;38.36;92594.03;5106700;28;20450;-79
2021/07/20 14:27:21;;;;;;;2.75;1.63;;;;;;;29.99;37.38;92591.22;5116724;28;19912;-79
2021/07/20 14:29:47;;;;;;;2.50;1.33;;;;;;;30.03;37.08;92598.09;5105489;28;20034;-80
2021/07/20 14:32:15;;;;;;;2.55;1.02;;;;;;;30.40;36.60;92593.78;5086437;28;20067;-81
2021/07/20 14:34:56;;;;;;;1.38;1.15;;;;;;;30.67;36.79;92601.84;5082458;28;20448;-82
2021/07/20 14:37:46;;;;;;;1.27;1.13;;;;;;;30.58;35.98;92590.81;5094421;28;20261;-81
2021/07/20 14:40:26;;;;;;;1.80;1.40;;;;;;;30.74;37.10;92587.47;5064450;28;20043;-81
2021/07/20 14:42:54;;;;;;;1.38;1.02;;;;;;;30.36;36.64;92589.59;5094138;28;20089;-81
2021/07/20 14:45:24;;;;;;;1.73;1.27;;;;;;;30.35;38.18;92599.63;5094449;28;20044;-81
2021/07/20 14:47:49;;;;;;;2.20;1.08;;;;;;;30.65;37.13;92596.09;5094913;28;20166;-82
2021/07/20 14:50:37;;;;;;;1.80;1.30;;;;;;;30.87;36.24;92595.75;5094556;28;20034;-80
2021/07/20 14:53:08;;;;;;;1.95;1.45;;;;;;;31.04;37.98;92594.69;5094672;28;20032;-83
2021/07/20 14:55:41;;;;;;;1.52;1.10;;;;;;;30.52;35.34;92591.69;5105208;28;20076;-82
2021/07/20 14:58:11;;;;;;;1.17;1.05;;;;;;;29.42;38.35;92587.28;5096874;28;20114;-81
2021/07/20 15:00:52;;;;;;;1.98;1.58;;;;;;;29.88;39.33;92594.09;5059083;28;20453;-81
2021/07/20 15:03:40;;;;;;;3.03;1.83;;;;;;;29.76;39.27;92589.22;5094094;28;20028;-81
2021/07/20 15:06:25;;;;;;;2.08;1.30;;;;;;;29.93;38.31;92590.19;5109333;28;20058;-82
2021/07/20 15:08:58;;;;;;;1.88;1.40;;;;;;;29.68;38.94;92592.00;5099318;28;20043;-80
2021/07/20 15:11:37;;;;;;;3.15;1.80;;;;;;;29.39;39.26;92585.41;5094347;28;20146;-80
2021/07/20 15:14:09;;;;;;;1.75;1.20;;;;;;;29.43;40.20;92589.59;5094851;28;20035;-82
2021/07/20 15:16:41;;;;;;;1.70;1.15;;;;;;;29.67;38.76;92590.44;5096084;28;20032;-80
2021/07/20 15:19:09;;;;;;;;;;;;;;;30.23;39.20;92594.75;5097348;28;20055;-81
2021/07/20 15:21:43;;;;;;;1.77;1.27;;;;;;;30.00;38.67;92590.84;5094012;28;19930;-81
2021/07/20 15:24:21;;;;;;;2.55;1.50;;;;;;;29.23;39.17;92588.66;5093422;28;20039;-80
2021/07/20 15:26:51;;;;;;;1.88;1.27;;;;;;;29.91;39.38;92597.91;5094208;28;20032;-82
2021/07/20 15:29:17;;;;;;;1.45;1.17;;;;;;;29.87;39.94;92592.56;5098353;28;20048;-80
2021/07/20 15:31:44;;;;;;;1.92;1.40;;;;;;;29.40;39.65;92597.69;5097410;28;20534;-79
2021/07/20 15:34:17;;;;;;;3.05;2.00;;;;;;;29.00;40.16;92603.47;5097854;28;20040;-78
2021/07/20 15:36:43;;;;;;;2.00;1.15;;;;;;;29.20;40.67;92606.38;5104158;28;20512;-78